Time;durP1;ratioP1;P1;durP2;ratioP2;P2;SDS_P1;SDS_P2;PMS_P1;PMS_P2;Temp;Humidity;BMP_temperature;BMP_pressure;BME280_temperature;BME280_humidity;BME280_pressure;Samples;Min_cycle;Max_cycle;Signal;HPM_P1;HPM_P2
2023/08/25 00:02:15;;;;;;;0.00;0.00;;;;;;;19.77;100.00;100991.69;5081867;28;20513;-46
2023/08/25 00:04:42;;;;;;;0.00;0.00;;;;;;;19.74;100.00;100997.63;5079282;28;20407;-48
2023/08/25 00:07:07;;;;;;;0.00;0.00;;;;;;;19.73;100.00;100988.63;5074273;28;20463;-48
2023/08/25 00:09:33;;;;;;;0.00;0.00;;;;;;;19.72;100.00;100991.56;5074131;28;20070;-46
2023/08/25 00:11:58;;;;;;;0.00;0.00;;;;;;;19.71;100.00;100988.00;5073728;28;20548;-46
2023/08/25 00:14:24;;;;;;;0.00;0.00;;;;;;;19.68;100.00;100985.78;5073856;28;20112;-47
2023/08/25 00:16:49;;;;;;;0.00;0.00;;;;;;;19.67;100.00;100983.28;5064318;28;20071;-45
2023/08/25 00:19:17;;;;;;;0.00;0.00;;;;;;;19.64;100.00;100979.09;5074150;28;20036;-48
2023/08/25 00:21:42;;;;;;;;;;;;;;;19.63;100.00;100987.53;5074299;28;20119;-44
2023/08/25 00:24:07;;;;;;;0.00;0.00;;;;;;;19.63;100.00;100987.53;5067686;28;20014;-46
2023/08/25 00:26:32;;;;;;;0.00;0.00;;;;;;;19.62;100.00;100991.34;5081741;28;20032;-46
2023/08/25 00:28:58;;;;;;;0.00;0.00;;;;;;;19.59;100.00;100986.31;5075211;28;20119;-47
2023/08/25 00:31:23;;;;;;;0.00;0.00;;;;;;;19.58;100.00;100977.31;5072522;28;20086;-46
2023/08/25 00:33:50;;;;;;;0.00;0.00;;;;;;;19.55;100.00;100977.78;5082561;28;20027;-46
2023/08/25 00:36:15;;;;;;;0.00;0.00;;;;;;;19.56;100.00;100981.34;5093625;28;20024;-47
2023/08/25 00:38:40;;;;;;;0.00;0.00;;;;;;;19.53;100.00;100978.03;5092832;28;20024;-47
2023/08/25 00:41:06;;;;;;;0.00;0.00;;;;;;;19.52;100.00;100986.47;5055573;28;20432;-47
2023/08/25 00:43:33;;;;;;;0.00;0.00;;;;;;;19.51;100.00;100980.19;5073724;28;20027;-46
2023/08/25 00:45:59;;;;;;;0.00;0.00;;;;;;;19.48;100.00;100975.19;5055465;28;20032;-47
2023/08/25 00:48:24;;;;;;;0.00;0.00;;;;;;;19.47;100.00;100981.72;5058371;28;20459;-46
2023/08/25 00:50:50;;;;;;;0.00;0.00;;;;;;;19.44;100.00;100984.91;5056884;28;20108;-47
2023/08/25 00:53:15;;;;;;;0.00;0.00;;;;;;;19.45;100.00;100983.00;5073648;28;20025;-46
2023/08/25 00:55:40;;;;;;;0.00;0.00;;;;;;;19.42;100.00;100978.88;5073238;28;20060;-46
2023/08/25 00:58:07;;;;;;;0.00;0.00;;;;;;;19.41;100.00;100982.66;5073501;28;20028;-47
2023/08/25 01:00:33;;;;;;;0.00;0.00;;;;;;;19.38;100.00;100977.69;5072954;28;20036;-47
2023/08/25 01:03:00;;;;;;;0.00;0.00;;;;;;;19.37;100.00;100984.19;5073568;28;20020;-47
2023/08/25 01:05:25;;;;;;;0.00;0.00;;;;;;;19.33;100.00;100983.03;5073001;28;20490;-46
2023/08/25 01:07:52;;;;;;;0.00;0.00;;;;;;;19.32;100.00;100975.88;5073241;28;20045;-49
2023/08/25 01:10:24;;;;;;;0.00;0.00;;;;;;;19.32;100.00;100975.88;5073112;28;20078;-47
2023/08/25 01:13:10;;;;;;;0.00;0.00;;;;;;;19.30;100.00;100978.88;5055644;28;20382;-49
2023/08/25 01:15:38;;;;;;;0.00;0.00;;;;;;;19.31;100.00;100979.69;5055568;28;20637;-48
2023/08/25 01:18:04;;;;;;;;;;;;;;;19.29;100.00;100976.38;5055752;28;20024;-50
2023/08/25 01:20:29;;;;;;;0.00;0.00;;;;;;;19.29;100.00;100982.66;5073370;28;19919;-46
2023/08/25 01:23:26;;;;;;;0.00;0.00;;;;;;;19.30;100.00;100988.97;5055141;28;20035;-46
2023/08/25 01:25:53;;;;;;;0.00;0.00;;;;;;;19.32;100.00;100986.81;5068133;28;20036;-50
2023/08/25 01:28:20;;;;;;;0.00;0.00;;;;;;;19.37;100.00;100984.19;5057192;28;20046;-44
2023/08/25 01:30:46;;;;;;;0.00;0.00;;;;;;;19.40;100.00;100974.72;5082173;28;20535;-47
2023/08/25 01:33:12;;;;;;;0.00;0.00;;;;;;;19.42;100.00;100975.31;5057501;28;20028;-47
2023/08/25 01:35:53;;;;;;;0.00;0.00;;;;;;;19.44;100.00;100971.28;5072201;28;20021;-49
2023/08/25 01:38:27;;;;;;;0.00;0.00;;;;;;;19.40;100.00;100963.78;5084143;28;20046;-45
2023/08/25 01:41:00;;;;;;;0.00;0.00;;;;;;;19.36;100.00;100968.91;5091838;28;20099;-47
2023/08/25 01:43:29;;;;;;;0.00;0.00;;;;;;;19.34;100.00;100962.84;5055577;28;20468;-48
2023/08/25 01:45:55;;;;;;;0.00;0.00;;;;;;;19.33;100.00;100961.19;5073774;28;20051;-48
2023/08/25 01:48:20;;;;;;;0.00;0.00;;;;;;;19.30;100.00;100961.69;5060469;28;20031;-46
2023/08/25 01:50:46;;;;;;;0.00;0.00;;;;;;;19.29;100.00;100963.56;5057138;28;20043;-45
2023/08/25 01:53:12;;;;;;;0.00;0.00;;;;;;;19.27;100.00;100962.13;5051060;28;20534;-46
2023/08/25 01:55:37;;;;;;;0.00;0.00;;;;;;;19.23;100.00;100950.03;5064381;28;20036;-47
2023/08/25 01:58:03;;;;;;;0.00;0.00;;;;;;;19.24;100.00;100951.69;5086422;28;20046;-51
2023/08/25 02:00:28;;;;;;;0.00;0.00;;;;;;;19.22;100.00;100946.50;5085369;28;20040;-51
2023/08/25 02:02:54;;;;;;;0.00;0.00;;;;;;;19.21;100.00;100935.78;5091346;28;20051;-48
2023/08/25 02:05:21;;;;;;;0.00;0.00;;;;;;;19.19;100.00;100941.47;5084047;28;20415;-43
2023/08/25 02:07:46;;;;;;;0.00;0.00;;;;;;;19.17;100.00;100940.91;5073238;28;20119;-44
2023/08/25 02:10:12;;;;;;;0.00;0.00;;;;;;;19.15;100.00;100940.31;5071821;28;20017;-49
2023/08/25 02:12:37;;;;;;;0.00;0.00;;;;;;;19.15;100.00;100948.50;5071137;28;20417;-46
2023/08/25 02:15:03;;;;;;;0.00;0.00;;;;;;;19.13;100.00;100947.06;5071622;28;20094;-46
2023/08/25 02:17:29;;;;;;;0.00;0.00;;;;;;;19.09;100.00;100938.53;5073287;28;20029;-47
2023/08/25 02:19:54;;;;;;;0.00;0.00;;;;;;;19.04;100.00;100941.13;5071963;28;20099;-44
2023/08/25 02:22:19;;;;;;;0.00;0.00;;;;;;;19.01;100.00;100942.44;5070690;28;20056;-45
2023/08/25 02:24:45;;;;;;;0.00;0.00;;;;;;;18.97;100.00;100935.78;5070909;28;20058;-46
2023/08/25 02:27:10;;;;;;;0.00;0.00;;;;;;;18.92;100.00;100932.91;5070975;28;20016;-47
2023/08/25 02:29:35;;;;;;;0.00;0.00;;;;;;;18.88;100.00;100926.28;5075159;28;20031;-47
2023/08/25 02:32:03;;;;;;;0.00;0.00;;;;;;;18.83;100.00;100915.25;5074612;28;20108;-45
2023/08/25 02:34:28;;;;;;;0.00;0.00;;;;;;;18.85;100.00;100924.88;5069167;28;20020;-46
2023/08/25 02:36:54;;;;;;;0.00;0.00;;;;;;;18.84;100.00;100919.63;5091123;28;20488;-46
2023/08/25 02:39:19;;;;;;;0.00;0.00;;;;;;;18.86;100.00;100922.97;5075403;28;20899;-46
2023/08/25 02:41:45;;;;;;;0.00;0.00;;;;;;;18.87;100.00;100919.16;5071195;28;20024;-44
2023/08/25 02:44:10;;;;;;;0.00;0.00;;;;;;;18.89;100.00;100916.22;5083341;28;20106;-46
2023/08/25 02:46:37;;;;;;;0.00;0.00;;;;;;;18.90;100.00;100915.13;5060235;28;20024;-48
2023/08/25 02:49:03;;;;;;;0.00;0.00;;;;;;;18.91;100.00;100909.47;5054392;28;20379;-46
2023/08/25 02:51:28;;;;;;;0.00;0.00;;;;;;;18.92;100.00;100900.19;5055276;28;20024;-46
2023/08/25 02:53:53;;;;;;;0.00;0.00;;;;;;;18.92;100.00;100899.38;5071557;28;20025;-45
2023/08/25 02:56:19;;;;;;;0.00;0.00;;;;;;;18.93;100.00;100890.97;5071351;28;20029;-50
2023/08/25 02:58:44;;;;;;;0.00;0.00;;;;;;;18.94;100.00;100892.63;5070881;28;20442;-46
2023/08/25 03:01:13;;;;;;;0.00;0.00;;;;;;;18.95;100.00;100883.34;5070787;28;20049;-47
2023/08/25 03:03:38;;;;;;;0.00;0.00;;;;;;;18.95;100.00;100886.09;5070310;28;20033;-45
2023/08/25 03:06:04;;;;;;;0.00;0.00;;;;;;;18.95;100.00;100887.97;5071100;28;20020;-45
2023/08/25 03:08:30;;;;;;;0.00;0.00;;;;;;;18.95;100.00;100888.81;5070540;28;20391;-47
2023/08/25 03:10:55;;;;;;;0.00;0.00;;;;;;;18.95;100.00;100882.53;5071022;28;20066;-46
2023/08/25 03:13:21;;;;;;;0.00;0.00;;;;;;;18.91;100.00;100879.47;5055340;28;20111;-45
2023/08/25 03:15:48;;;;;;;0.00;0.00;;;;;;;18.90;100.00;100875.06;5073747;28;20074;-44
2023/08/25 03:18:14;;;;;;;0.00;0.00;;;;;;;18.93;100.00;100880.06;5072688;28;20025;-45
2023/08/25 03:20:40;;;;;;;0.00;0.00;;;;;;;18.91;100.00;100876.72;5081753;28;20081;-47
2023/08/25 03:23:05;;;;;;;0.00;0.00;;;;;;;18.94;100.00;100878.16;5083503;28;20032;-47
2023/08/25 03:25:30;;;;;;;0.00;0.00;;;;;;;18.94;100.00;100876.25;5070269;28;20044;-45
2023/08/25 03:27:57;;;;;;;0.00;0.00;;;;;;;18.99;100.00;100879.09;5070423;28;20054;-47
2023/08/25 03:30:22;;;;;;;0.00;0.00;;;;;;;19.02;100.00;100883.25;5077330;28;20490;-45
2023/08/25 03:32:47;;;;;;;0.00;0.00;;;;;;;19.05;100.00;100882.78;5077928;28;20032;-46
2023/08/25 03:35:13;;;;;;;0.00;0.00;;;;;;;19.10;100.00;100879.34;5088892;28;20069;-47
2023/08/25 03:37:38;;;;;;;0.00;0.00;;;;;;;19.10;100.00;100874.72;5075762;28;20029;-46
2023/08/25 03:40:04;;;;;;;0.00;0.00;;;;;;;19.13;100.00;100867.94;5071601;28;20066;-45
2023/08/25 03:42:30;;;;;;;0.00;0.00;;;;;;;19.13;100.00;100870.69;5085841;28;20032;-47
2023/08/25 03:44:55;;;;;;;0.00;0.00;;;;;;;19.15;100.00;100871.28;5070006;28;20048;-48
2023/08/25 03:47:20;;;;;;;0.00;0.00;;;;;;;19.20;100.00;100876.84;5070925;28;20368;-45
2023/08/25 03:49:46;;;;;;;0.00;0.00;;;;;;;19.21;100.00;100871.13;5082419;28;20054;-46
2023/08/25 03:52:11;;;;;;;0.00;0.00;;;;;;;19.26;100.00;100867.69;5073117;28;20032;-47
2023/08/25 03:54:36;;;;;;;0.00;0.00;;;;;;;19.26;100.00;100871.25;5078153;28;20048;-51
2023/08/25 03:57:03;;;;;;;0.00;0.00;;;;;;;19.27;100.00;100874.81;5089733;28;20071;-47
2023/08/25 03:59:30;;;;;;;0.00;0.00;;;;;;;19.25;100.00;100871.50;5089937;28;20466;-50
2023/08/25 04:01:55;;;;;;;0.00;0.00;;;;;;;19.27;100.00;100866.63;5079849;28;20040;-48
2023/08/25 04:04:21;;;;;;;0.00;0.00;;;;;;;19.29;100.00;100856.31;5070676;28;20382;-47
2023/08/25 04:06:46;;;;;;;0.00;0.00;;;;;;;19.30;100.00;100863.44;5069957;28;20052;-48
2023/08/25 04:09:13;;;;;;;0.00;0.00;;;;;;;19.30;100.00;100860.72;5069907;28;20040;-44
2023/08/25 04:11:38;;;;;;;0.00;0.00;;;;;;;19.32;100.00;100858.53;5051727;28;20051;-46
2023/08/25 04:14:04;;;;;;;0.00;0.00;;;;;;;19.36;100.00;100857.00;5070952;28;20547;-47
2023/08/25 04:16:29;;;;;;;0.00;0.00;;;;;;;19.37;100.00;100855.94;5069572;28;20028;-46
2023/08/25 04:18:54;;;;;;;0.00;0.00;;;;;;;19.39;100.00;100859.25;5069790;28;20059;-44
2023/08/25 04:21:20;;;;;;;0.00;0.00;;;;;;;19.41;100.00;100865.31;5057239;28;20031;-47
2023/08/25 04:23:45;;;;;;;0.00;0.00;;;;;;;19.41;100.00;100856.31;5089773;28;20130;-46
2023/08/25 04:26:10;;;;;;;0.00;0.00;;;;;;;19.41;100.00;100859.84;5083503;28;20039;-45
2023/08/25 04:28:36;;;;;;;0.00;0.00;;;;;;;19.43;100.00;100860.44;5069536;28;20032;-46
2023/08/25 04:31:01;;;;;;;0.00;0.00;;;;;;;19.43;100.00;100854.13;5073858;28;20025;-47
2023/08/25 04:33:27;;;;;;;0.00;0.00;;;;;;;19.42;100.00;100861.50;5076945;28;20031;-46
2023/08/25 04:35:52;;;;;;;0.00;0.00;;;;;;;19.41;100.00;100857.13;5073650;28;20115;-48
2023/08/25 04:38:17;;;;;;;0.00;0.00;;;;;;;19.42;100.00;100857.94;5093360;28;20099;-47
2023/08/25 04:40:43;;;;;;;0.00;0.00;;;;;;;19.41;100.00;100864.50;5091564;28;20032;-47
2023/08/25 04:43:08;;;;;;;0.00;0.00;;;;;;;19.41;100.00;100859.84;5073242;28;20021;-50
2023/08/25 04:45:34;;;;;;;0.00;0.00;;;;;;;19.41;100.00;100870.78;5076366;28;20063;-50
2023/08/25 04:47:59;;;;;;;0.00;0.00;;;;;;;19.36;100.00;100867.94;5071356;28;20453;-50
2023/08/25 04:50:25;;;;;;;0.00;0.00;;;;;;;19.36;100.00;100870.66;5073232;28;20028;-47
2023/08/25 04:52:51;;;;;;;0.00;0.00;;;;;;;19.38;100.00;100864.94;5053286;28;20021;-46
2023/08/25 04:55:16;;;;;;;0.00;0.00;;;;;;;19.37;100.00;100866.03;5072409;28;20025;-47
2023/08/25 04:57:42;;;;;;;0.00;0.00;;;;;;;19.37;100.00;100864.13;5072971;28;20024;-45
2023/08/25 05:00:08;;;;;;;0.00;0.00;;;;;;;19.38;100.00;100865.78;5071521;28;20036;-46
2023/08/25 05:02:34;;;;;;;0.00;0.00;;;;;;;19.37;100.00;100858.66;5072426;28;20044;-48
2023/08/25 05:05:00;;;;;;;0.00;0.00;;;;;;;19.37;100.00;100858.66;5072711;28;20371;-49
2023/08/25 05:07:27;;;;;;;0.00;0.00;;;;;;;19.37;100.00;100858.66;5074628;28;20059;-47
2023/08/25 05:09:53;;;;;;;0.00;0.00;;;;;;;19.39;100.00;100851.06;5073177;28;20726;-49
2023/08/25 05:12:19;;;;;;;0.00;0.00;;;;;;;19.36;100.00;100848.81;5072960;28;20387;-47
2023/08/25 05:14:44;;;;;;;0.00;0.00;;;;;;;19.38;100.00;100848.56;5056959;28;20032;-48
2023/08/25 05:17:09;;;;;;;0.00;0.00;;;;;;;19.37;100.00;100853.19;5093215;28;20067;-47
2023/08/25 05:19:35;;;;;;;0.00;0.00;;;;;;;19.36;100.00;100851.56;5093244;28;20024;-46
2023/08/25 05:22:00;;;;;;;0.00;0.00;;;;;;;19.40;100.00;100849.16;5064973;28;20064;-46
2023/08/25 05:24:26;;;;;;;0.00;0.00;;;;;;;19.37;100.00;100853.19;5053142;28;20024;-47
2023/08/25 05:26:52;;;;;;;0.00;0.00;;;;;;;19.38;100.00;100852.16;5053426;28;20100;-45
2023/08/25 05:29:22;;;;;;;0.00;0.00;;;;;;;19.39;100.00;100845.59;5068492;28;20036;-46
2023/08/25 05:31:48;;;;;;;0.00;0.00;;;;;;;19.39;100.00;100850.25;5073114;28;20021;-44
2023/08/25 05:34:14;;;;;;;0.00;0.00;;;;;;;19.40;100.00;100847.25;5074006;28;20364;-46
2023/08/25 05:36:40;;;;;;;0.00;0.00;;;;;;;19.44;100.00;100836.72;5073092;28;20027;-49
2023/08/25 05:39:05;;;;;;;0.00;0.00;;;;;;;19.47;100.00;100828.84;5072851;28;20028;-45
2023/08/25 05:41:30;;;;;;;0.00;0.00;;;;;;;19.52;100.00;100833.59;5051844;28;20024;-48
2023/08/25 05:43:56;;;;;;;0.00;0.00;;;;;;;19.59;100.00;100833.44;5052744;28;20151;-47
2023/08/25 05:46:21;;;;;;;0.00;0.00;;;;;;;19.69;100.00;100828.22;5053526;28;20032;-47
2023/08/25 05:48:47;;;;;;;0.00;0.00;;;;;;;19.88;100.00;100820.66;5070715;28;20020;-48
2023/08/25 05:51:12;;;;;;;0.00;0.00;;;;;;;20.11;100.00;100830.66;5070383;28;20040;-48
2023/08/25 05:53:38;;;;;;;0.00;0.00;;;;;;;20.30;100.00;100826.66;5052770;28;20020;-46
2023/08/25 05:56:03;;;;;;;0.00;0.00;;;;;;;20.45;100.00;100825.22;5070671;28;20028;-46
2023/08/25 05:58:29;;;;;;;0.10;0.00;;;;;;;20.41;100.00;100813.97;5070673;28;20436;-48
2023/08/25 06:00:56;;;;;;;0.00;0.00;;;;;;;20.44;100.00;100801.72;5069839;28;20098;-49
2023/08/25 06:03:22;;;;;;;0.00;0.00;;;;;;;20.34;100.00;100781.31;5074328;28;20456;-47
2023/08/25 06:05:49;;;;;;;0.00;0.00;;;;;;;20.27;100.00;100779.84;5077734;28;20038;-49
2023/08/25 06:08:16;;;;;;;0.00;0.00;;;;;;;20.18;100.00;100771.22;5070011;28;20032;-48
2023/08/25 06:10:41;;;;;;;0.00;0.00;;;;;;;20.11;100.00;100770.53;5070389;28;20341;-51
2023/08/25 06:13:07;;;;;;;0.00;0.00;;;;;;;20.08;100.00;100776.50;5071926;28;20039;-47
2023/08/25 06:15:32;;;;;;;0.00;0.00;;;;;;;20.06;100.00;100757.63;5072335;28;20032;-48
2023/08/25 06:17:57;;;;;;;0.00;0.00;;;;;;;20.02;100.00;100766.59;5054309;28;20033;-46
2023/08/25 06:20:23;;;;;;;0.00;0.00;;;;;;;20.00;100.00;100761.34;5071562;28;20059;-46
2023/08/25 06:22:48;;;;;;;0.00;0.00;;;;;;;20.00;100.00;100768.72;5071676;28;20497;-48
2023/08/25 06:25:14;;;;;;;0.00;0.00;;;;;;;20.02;100.00;100774.78;5071573;28;20028;-48
2023/08/25 06:27:39;;;;;;;0.00;0.00;;;;;;;20.03;100.00;100781.88;5053638;28;20490;-49
2023/08/25 06:30:05;;;;;;;0.00;0.00;;;;;;;20.06;100.00;100784.13;5072828;28;20093;-49
2023/08/25 06:32:31;;;;;;;0.00;0.00;;;;;;;20.08;100.00;100776.50;5072324;28;20036;-48
2023/08/25 06:34:57;;;;;;;0.00;0.00;;;;;;;20.15;100.00;100783.47;5072223;28;20021;-46
2023/08/25 06:37:22;;;;;;;0.00;0.00;;;;;;;20.17;100.00;100777.78;5072152;28;20082;-46
2023/08/25 06:39:47;;;;;;;0.03;0.00;;;;;;;20.15;100.00;100777.19;5071171;28;20056;-49
2023/08/25 06:42:13;;;;;;;0.00;0.00;;;;;;;20.16;100.00;100774.19;5070505;28;20096;-50
2023/08/25 06:44:40;;;;;;;0.00;0.00;;;;;;;20.21;100.00;100775.38;5072398;28;20036;-50
2023/08/25 06:47:05;;;;;;;0.00;0.00;;;;;;;20.15;100.00;100777.19;5070895;28;20336;-47
2023/08/25 06:49:31;;;;;;;0.00;0.00;;;;;;;20.25;100.00;100779.25;5053187;28;20120;-50
2023/08/25 06:51:56;;;;;;;0.00;0.00;;;;;;;20.25;100.00;100769.16;5068788;28;20104;-47
2023/08/25 06:54:24;;;;;;;0.00;0.00;;;;;;;20.45;100.00;100776.03;5067708;28;20032;-48
2023/08/25 06:56:52;;;;;;;0.00;0.00;;;;;;;20.54;100.00;100774.56;5066244;28;20091;-45
2023/08/25 06:59:18;;;;;;;0.00;0.00;;;;;;;20.67;100.00;100776.13;5057180;28;20025;-46
2023/08/25 07:01:43;;;;;;;0.00;0.00;;;;;;;20.71;100.00;100775.38;5060872;28;20554;-46
2023/08/25 07:04:09;;;;;;;0.00;0.00;;;;;;;20.72;100.00;100765.25;5052274;28;20463;-47
2023/08/25 07:06:36;;;;;;;0.00;0.00;;;;;;;20.80;100.00;100757.47;5046577;28;20120;-48
2023/08/25 07:09:02;;;;;;;0.00;0.00;;;;;;;20.90;100.00;100750.47;5065389;28;20181;-46
2023/08/25 07:11:27;;;;;;;0.00;0.00;;;;;;;21.03;100.00;100750.91;5075770;28;20039;-47
2023/08/25 07:13:53;;;;;;;0.00;0.00;;;;;;;21.29;100.00;100747.69;5068978;28;20040;-48
2023/08/25 07:16:18;;;;;;;0.00;0.00;;;;;;;21.47;100.00;100745.47;5060375;28;20508;-48
2023/08/25 07:18:44;;;;;;;0.00;0.00;;;;;;;21.61;100.00;100723.16;5080311;28;20110;-48
2023/08/25 07:21:11;;;;;;;0.00;0.00;;;;;;;21.92;100.00;100724.28;5089764;28;20039;-46
2023/08/25 07:23:36;;;;;;;0.00;0.00;;;;;;;22.23;100.00;100721.81;5090628;28;20093;-47
2023/08/25 07:26:03;;;;;;;0.00;0.00;;;;;;;22.46;100.00;100705.00;5070241;28;20040;-46
2023/08/25 07:28:28;;;;;;;0.00;0.00;;;;;;;22.79;100.00;100692.81;5084260;28;20114;-47
2023/08/25 07:30:53;;;;;;;0.00;0.00;;;;;;;22.75;100.00;100682.66;5072617;28;20028;-48
2023/08/25 07:33:19;;;;;;;0.00;0.00;;;;;;;23.20;100.00;100683.97;5090585;28;20103;-48
2023/08/25 07:35:44;;;;;;;0.00;0.00;;;;;;;23.43;100.00;100679.88;5072333;28;20047;-49
2023/08/25 07:38:12;;;;;;;0.00;0.00;;;;;;;23.65;100.00;100674.16;5090538;28;20031;-47
2023/08/25 07:40:37;;;;;;;0.00;0.00;;;;;;;23.60;100.00;100685.16;5090320;28;20028;-46
2023/08/25 07:43:03;;;;;;;0.00;0.00;;;;;;;23.78;100.00;100684.66;5089897;28;20544;-49
2023/08/25 07:45:29;;;;;;;0.00;0.00;;;;;;;23.83;100.00;100676.41;5090589;28;20020;-46
2023/08/25 07:47:55;;;;;;;0.00;0.00;;;;;;;23.81;100.00;100673.09;5090600;28;20024;-46
2023/08/25 07:50:21;;;;;;;0.00;0.00;;;;;;;23.84;100.00;100669.81;5089874;28;20051;-46
2023/08/25 07:52:47;;;;;;;0.00;0.00;;;;;;;23.61;100.00;100667.56;5090270;28;20035;-46
2023/08/25 07:55:12;;;;;;;0.00;0.00;;;;;;;23.54;100.00;100677.97;5090299;28;20021;-43
2023/08/25 07:57:38;;;;;;;0.10;0.00;;;;;;;23.32;100.00;100673.53;5090567;28;20028;-47
2023/08/25 08:00:06;;;;;;;0.00;0.00;;;;;;;23.27;100.00;100668.03;5090130;28;20463;-49
2023/08/25 08:02:33;;;;;;;0.00;0.00;;;;;;;23.10;100.00;100683.94;5089898;28;20110;-47
2023/08/25 08:04:58;;;;;;;0.00;0.00;;;;;;;22.82;100.00;100685.97;5092594;28;20031;-45
2023/08/25 08:07:24;;;;;;;0.00;0.00;;;;;;;22.82;100.00;100694.19;5094156;28;20115;-47
2023/08/25 08:09:49;;;;;;;0.00;0.00;;;;;;;22.80;100.00;100701.88;5094781;28;20032;-45
2023/08/25 08:12:14;;;;;;;0.00;0.00;;;;;;;22.67;100.00;100696.88;5075920;28;20427;-43
2023/08/25 08:14:40;;;;;;;0.00;0.00;;;;;;;22.57;100.00;100698.47;5094354;28;20520;-46
2023/08/25 08:17:05;;;;;;;0.00;0.00;;;;;;;22.49;100.00;100695.41;5094423;28;20028;-44
2023/08/25 08:19:30;;;;;;;0.00;0.00;;;;;;;22.44;100.00;100693.47;5094106;28;20031;-45
2023/08/25 08:21:57;;;;;;;0.00;0.00;;;;;;;22.44;100.00;100692.63;5093817;28;20027;-47
2023/08/25 08:24:22;;;;;;;0.00;0.00;;;;;;;22.48;100.00;100694.56;5093640;28;20027;-47
2023/08/25 08:26:48;;;;;;;0.00;0.00;;;;;;;22.44;100.00;100698.94;5093925;28;20028;-46
2023/08/25 08:29:13;;;;;;;0.00;0.00;;;;;;;22.43;100.00;100710.97;5093985;28;20059;-46
2023/08/25 08:31:40;;;;;;;0.00;0.00;;;;;;;22.42;100.00;100711.25;5093567;28;20359;-46
2023/08/25 08:34:05;;;;;;;0.00;0.00;;;;;;;22.34;100.00;100712.59;5075910;28;20016;-44
2023/08/25 08:36:31;;;;;;;0.00;0.00;;;;;;;22.25;100.00;100708.66;5093565;28;20035;-44
2023/08/25 08:38:56;;;;;;;0.00;0.00;;;;;;;22.20;100.00;100708.66;5093596;28;20020;-44
2023/08/25 08:41:21;;;;;;;0.00;0.00;;;;;;;22.24;100.00;100701.53;5093563;28;20099;-45
2023/08/25 08:43:48;;;;;;;0.00;0.00;;;;;;;22.30;100.00;100705.97;5075351;28;20032;-45
2023/08/25 08:46:17;;;;;;;0.00;0.00;;;;;;;22.40;100.00;100708.78;5075538;28;20140;-47
2023/08/25 08:48:43;;;;;;;0.00;0.00;;;;;;;22.48;100.00;100702.78;5093171;28;20262;-46
2023/08/25 08:51:09;;;;;;;0.00;0.00;;;;;;;22.54;100.00;100711.91;5075486;28;20569;-49
2023/08/25 08:53:35;;;;;;;0.00;0.00;;;;;;;22.56;100.00;100712.44;5093921;28;20107;-48
2023/08/25 08:56:01;;;;;;;0.00;0.00;;;;;;;22.76;100.00;100700.75;5093660;28;20106;-44
2023/08/25 08:58:27;;;;;;;0.00;0.00;;;;;;;23.05;100.00;100703.13;5093873;28;20028;-47
2023/08/25 09:00:53;;;;;;;0.00;0.00;;;;;;;23.06;100.00;100715.75;5093981;28;20048;-45
2023/08/25 09:03:20;;;;;;;0.00;0.00;;;;;;;23.10;100.00;100714.94;5094044;28;20035;-47
2023/08/25 09:05:47;;;;;;;0.00;0.00;;;;;;;23.07;100.00;100710.00;5075379;28;20055;-47
2023/08/25 09:08:13;;;;;;;0.00;0.00;;;;;;;23.28;100.00;100713.66;5093572;28;20024;-46
2023/08/25 09:10:39;;;;;;;0.00;0.00;;;;;;;23.70;100.00;100712.63;5093417;28;20323;-47
2023/08/25 09:13:04;;;;;;;0.00;0.00;;;;;;;24.25;100.00;100705.53;5074851;28;20050;-46
2023/08/25 09:15:32;;;;;;;0.00;0.00;;;;;;;24.85;100.00;100713.94;5091490;28;20070;-48
2023/08/25 09:18:05;;;;;;;0.00;0.00;;;;;;;25.90;100.00;100711.22;5092705;28;20115;-45
2023/08/25 09:20:33;;;;;;;0.00;0.00;;;;;;;26.16;100.00;100718.16;5092613;28;20383;-50
2023/08/25 09:22:59;;;;;;;0.00;0.00;;;;;;;25.84;100.00;100725.03;5093410;28;20024;-46
2023/08/25 09:25:24;;;;;;;0.00;0.00;;;;;;;25.75;100.00;100714.88;5074836;28;20527;-46
2023/08/25 09:27:57;;;;;;;0.00;0.00;;;;;;;25.55;100.00;100713.09;5092963;28;20038;-44
2023/08/25 09:30:37;;;;;;;0.00;0.00;;;;;;;25.06;100.00;100713.88;5092644;28;20147;-44
2023/08/25 09:33:07;;;;;;;0.00;0.00;;;;;;;24.78;100.00;100716.19;5092575;28;20046;-44
2023/08/25 09:35:33;;;;;;;0.00;0.00;;;;;;;24.48;100.00;100717.06;5092732;28;20102;-48
2023/08/25 09:37:59;;;;;;;0.00;0.00;;;;;;;24.40;100.00;100710.16;5092323;28;20463;-46
2023/08/25 09:40:25;;;;;;;0.00;0.00;;;;;;;24.43;100.00;100717.03;5092820;28;20024;-47
2023/08/25 09:42:57;;;;;;;0.00;0.00;;;;;;;24.27;100.00;100711.56;5092345;28;20022;-44
2023/08/25 09:45:22;;;;;;;0.00;0.00;;;;;;;24.15;100.00;100711.03;5074252;28;20098;-45
2023/08/25 09:47:48;;;;;;;0.00;0.00;;;;;;;24.02;100.00;100714.34;5074563;28;20111;-46
2023/08/25 09:50:15;;;;;;;0.00;0.00;;;;;;;23.88;100.00;100709.41;5092665;28;20531;-48
2023/08/25 09:52:40;;;;;;;0.00;0.00;;;;;;;23.76;100.00;100716.25;5074220;28;20032;-46
2023/08/25 09:55:06;;;;;;;0.00;0.00;;;;;;;23.80;100.00;100714.59;5092152;28;20073;-47
2023/08/25 09:57:32;;;;;;;0.00;0.00;;;;;;;23.82;100.00;100713.22;5073487;28;20024;-48
2023/08/25 09:59:58;;;;;;;0.00;0.00;;;;;;;23.90;100.00;100720.09;5092016;28;20067;-45
2023/08/25 10:02:24;;;;;;;0.00;0.00;;;;;;;23.88;100.00;100716.78;5073912;28;20044;-44
2023/08/25 10:04:50;;;;;;;0.00;0.00;;;;;;;23.90;100.00;100714.59;5091672;28;20090;-47
2023/08/25 10:07:15;;;;;;;0.00;0.00;;;;;;;23.95;100.00;100719.28;5074043;28;20736;-45
2023/08/25 10:09:41;;;;;;;0.00;0.00;;;;;;;24.21;100.00;100717.34;5073996;28;20112;-43
2023/08/25 10:12:07;;;;;;;0.00;0.00;;;;;;;24.39;100.00;100707.72;5092169;28;20428;-46
2023/08/25 10:14:37;;;;;;;0.00;0.00;;;;;;;24.44;100.00;100694.81;5073673;28;20051;-46
2023/08/25 10:17:04;;;;;;;0.00;0.00;;;;;;;24.48;100.00;100703.31;5073894;28;20024;-46
2023/08/25 10:19:32;;;;;;;0.00;0.00;;;;;;;24.54;100.00;100707.72;5091504;28;20028;-48
2023/08/25 10:21:57;;;;;;;0.00;0.00;;;;;;;24.42;100.00;100704.41;5091675;28;20028;-45
2023/08/25 10:24:24;;;;;;;0.00;0.00;;;;;;;24.39;100.00;100699.47;5091605;28;20157;-47
2023/08/25 10:26:50;;;;;;;0.00;0.00;;;;;;;24.13;100.00;100691.22;5090886;28;20031;-44
2023/08/25 10:29:23;;;;;;;0.00;0.00;;;;;;;23.77;100.00;100702.22;5073198;28;20028;-45
2023/08/25 10:31:51;;;;;;;0.00;0.00;;;;;;;23.53;100.00;100698.31;5091536;28;20453;-43
2023/08/25 10:34:29;;;;;;;0.00;0.00;;;;;;;23.27;100.00;100706.47;5091688;28;20471;-46
2023/08/25 10:37:05;;;;;;;0.00;0.00;;;;;;;23.22;100.00;100703.72;5092051;28;20067;-46
2023/08/25 10:39:49;;;;;;;0.00;0.00;;;;;;;23.17;100.00;100700.97;5091668;28;20051;-45
2023/08/25 10:42:18;;;;;;;0.00;0.00;;;;;;;23.28;100.00;100708.16;5090437;28;20528;-47
2023/08/25 10:44:45;;;;;;;0.00;0.00;;;;;;;23.40;100.00;100705.97;5091534;28;20360;-44
2023/08/25 10:47:10;;;;;;;0.00;0.00;;;;;;;23.70;100.00;100700.81;5091214;28;20024;-49
2023/08/25 10:49:38;;;;;;;0.00;0.00;;;;;;;24.12;100.00;100705.25;5091670;28;20050;-44
2023/08/25 10:52:14;;;;;;;0.00;0.00;;;;;;;24.97;100.00;100700.69;5091528;28;20028;-45
2023/08/25 10:54:46;;;;;;;0.00;0.00;;;;;;;25.82;100.00;100705.16;5092048;28;20064;-43
2023/08/25 10:57:40;;;;;;;0.00;0.00;;;;;;;26.22;100.00;100708.72;5090901;28;20035;-44
2023/08/25 11:00:26;;;;;;;0.00;0.00;;;;;;;26.60;100.00;100708.13;5091054;28;20030;-43
2023/08/25 11:02:51;;;;;;;0.00;0.00;;;;;;;26.49;100.00;100708.19;5083968;28;20043;-45
2023/08/25 11:05:29;;;;;;;0.00;0.00;;;;;;;26.10;100.00;100702.78;5059506;28;20041;-47
2023/08/25 11:08:00;;;;;;;0.00;0.00;;;;;;;26.00;100.00;100706.44;5070846;28;20032;-47
2023/08/25 11:10:27;;;;;;;0.00;0.00;;;;;;;25.74;100.00;100707.72;5090695;28;20615;-46
2023/08/25 11:12:53;;;;;;;0.00;0.00;;;;;;;25.66;100.00;100711.91;5090909;28;20020;-47
2023/08/25 11:15:21;;;;;;;0.00;0.00;;;;;;;25.89;100.00;100702.13;5089595;28;20058;-44